Time;durP1;ratioP1;P1;durP2;ratioP2;P2;SDS_P1;SDS_P2;PMS_P1;PMS_P2;Temp;Humidity;BMP_temperature;BMP_pressure;BME280_temperature;BME280_humidity;BME280_pressure;Samples;Min_cycle;Max_cycle;Signal;HPM_P1;HPM_P2
2023/06/22 00:01:20;;;;;;;43.20;35.10;;;;;;;-128.00;-1.00;-1.00;103555;1256;1013530;-75
2023/06/22 00:03:48;;;;;;;38.00;31.90;;;;;;;-128.00;-1.00;-1.00;103385;1257;1002863;-76
2023/06/22 00:06:15;;;;;;;37.30;33.00;;;;;;;-128.00;-1.00;-1.00;103317;1252;1002910;-75
2023/06/22 00:08:41;;;;;;;36.50;29.10;;;;;;;-128.00;-1.00;-1.00;103561;1251;1002692;-75
2023/06/22 00:11:08;;;;;;;39.40;31.80;;;;;;;-128.00;-1.00;-1.00;103546;1257;1002258;-73
2023/06/22 00:13:35;;;;;;;42.10;32.50;;;;;;;-128.00;-1.00;-1.00;103525;1256;1002798;-75
2023/06/22 00:16:02;;;;;;;44.50;30.90;;;;;;;-128.00;-1.00;-1.00;103546;1255;1002688;-74
2023/06/22 00:18:30;;;;;;;37.30;32.30;;;;;;;-128.00;-1.00;-1.00;103520;1251;1002996;-74
2023/06/22 00:20:58;;;;;;;40.00;33.50;;;;;;;-128.00;-1.00;-1.00;103530;1251;1002612;-74
2023/06/22 00:23:25;;;;;;;41.90;35.20;;;;;;;-128.00;-1.00;-1.00;103574;1251;1002693;-74
2023/06/22 00:25:52;;;;;;;41.70;32.70;;;;;;;-128.00;-1.00;-1.00;103313;1260;1002764;-74
2023/06/22 00:28:19;;;;;;;42.20;33.90;;;;;;;-128.00;-1.00;-1.00;103511;1253;1003539;-76
2023/06/22 00:30:46;;;;;;;40.70;36.20;;;;;;;-128.00;-1.00;-1.00;103518;1251;1002824;-75
2023/06/22 00:33:12;;;;;;;46.50;35.90;;;;;;;-128.00;-1.00;-1.00;103332;1251;1002376;-73
2023/06/22 00:35:41;;;;;;;40.00;34.20;;;;;;;-128.00;-1.00;-1.00;103278;1252;1002685;-74
2023/06/22 00:38:08;;;;;;;41.50;35.70;;;;;;;-128.00;-1.00;-1.00;103184;1252;1012752;-75
2023/06/22 00:40:35;;;;;;;52.20;37.40;;;;;;;-128.00;-1.00;-1.00;103540;1256;1002194;-75
2023/06/22 00:43:01;;;;;;;41.90;35.60;;;;;;;-128.00;-1.00;-1.00;103515;1251;1003364;-73
2023/06/22 00:45:29;;;;;;;44.00;34.50;;;;;;;-128.00;-1.00;-1.00;103537;1251;1002539;-73
2023/06/22 00:47:57;;;;;;;47.40;37.50;;;;;;;-128.00;-1.00;-1.00;103530;1256;1002676;-75
2023/06/22 00:50:34;;;;;;;47.30;36.30;;;;;;;-128.00;-1.00;-1.00;103281;1257;1013490;-76
2023/06/22 00:53:08;;;;;;;43.80;37.10;;;;;;;-128.00;-1.00;-1.00;103218;1257;1012824;-75
2023/06/22 00:55:38;;;;;;;38.90;34.40;;;;;;;-128.00;-1.00;-1.00;103327;1251;1012632;-75
2023/06/22 00:58:07;;;;;;;33.60;30.00;;;;;;;-128.00;-1.00;-1.00;103516;1251;1010929;-73
2023/06/22 01:00:34;;;;;;;34.50;29.50;;;;;;;-128.00;-1.00;-1.00;103276;1257;1011389;-75
2023/06/22 01:03:01;;;;;;;32.60;29.20;;;;;;;-128.00;-1.00;-1.00;103535;1257;1002955;-74
2023/06/22 01:05:31;;;;;;;41.30;31.30;;;;;;;-128.00;-1.00;-1.00;103534;1256;1002775;-73
2023/06/22 01:08:05;;;;;;;32.10;28.70;;;;;;;-128.00;-1.00;-1.00;103595;1251;1013319;-74
2023/06/22 01:10:45;;;;;;;34.40;28.90;;;;;;;-128.00;-1.00;-1.00;103518;1251;1010494;-74
2023/06/22 01:13:18;;;;;;;37.60;28.20;;;;;;;-128.00;-1.00;-1.00;103549;1251;1011037;-75
2023/06/22 01:15:49;;;;;;;33.10;28.20;;;;;;;-128.00;-1.00;-1.00;103583;1256;1013268;-75
2023/06/22 01:18:17;;;;;;;29.30;26.10;;;;;;;-128.00;-1.00;-1.00;103573;1256;1013178;-74
2023/06/22 01:20:44;;;;;;;35.40;28.60;;;;;;;-128.00;-1.00;-1.00;103570;1251;1002126;-74
2023/06/22 01:23:46;;;;;;;28.40;25.50;;;;;;;-128.00;-1.00;-1.00;103630;1251;1003006;-74
2023/06/22 01:26:19;;;;;;;31.40;26.20;;;;;;;-128.00;-1.00;-1.00;102736;1261;1011609;-75
2023/06/22 01:28:52;;;;;;;31.40;26.60;;;;;;;-128.00;-1.00;-1.00;102687;1274;1012348;-75
2023/06/22 01:31:25;;;;;;;29.10;25.10;;;;;;;-128.00;-1.00;-1.00;102807;1264;1012699;-73
2023/06/22 01:34:03;;;;;;;30.80;26.60;;;;;;;-128.00;-1.00;-1.00;102438;1260;1012431;-75
2023/06/22 01:36:31;;;;;;;27.30;24.20;;;;;;;-128.00;-1.00;-1.00;102662;1260;1011324;-74
2023/06/22 01:38:58;;;;;;;28.00;25.00;;;;;;;-128.00;-1.00;-1.00;102747;1260;1002523;-74
2023/06/22 01:41:28;;;;;;;29.90;26.10;;;;;;;-128.00;-1.00;-1.00;102749;1267;1002794;-74
2023/06/22 01:43:55;;;;;;;34.20;27.70;;;;;;;-128.00;-1.00;-1.00;102681;1262;1013530;-74
2023/06/22 01:46:22;;;;;;;37.10;29.40;;;;;;;-128.00;-1.00;-1.00;102725;1260;1003319;-75
2023/06/22 01:48:49;;;;;;;34.10;30.20;;;;;;;-128.00;-1.00;-1.00;102784;1260;1002933;-75
2023/06/22 01:51:16;;;;;;;35.00;29.80;;;;;;;-128.00;-1.00;-1.00;102711;1261;1002821;-75
2023/06/22 01:53:43;;;;;;;36.30;30.80;;;;;;;-128.00;-1.00;-1.00;102770;1267;1002783;-74
2023/06/22 01:56:11;;;;;;;34.30;28.50;;;;;;;-128.00;-1.00;-1.00;102744;1264;1002772;-75
2023/06/22 01:58:43;;;;;;;34.80;28.90;;;;;;;-128.00;-1.00;-1.00;102776;1261;1002683;-74
2023/06/22 02:01:12;;;;;;;35.20;29.60;;;;;;;-128.00;-1.00;-1.00;102785;1266;1010148;-75
2023/06/22 02:03:47;;;;;;;32.50;27.20;;;;;;;-128.00;-1.00;-1.00;103058;1252;1010523;-73
2023/06/22 02:06:21;;;;;;;31.90;26.40;;;;;;;-128.00;-1.00;-1.00;103494;1255;1013221;-73
2023/06/22 02:08:50;;;;;;;31.70;27.80;;;;;;;-128.00;-1.00;-1.00;103519;1257;1013283;-75
2023/06/22 02:11:18;;;;;;;32.30;27.60;;;;;;;-128.00;-1.00;-1.00;103419;1254;1012324;-73
2023/06/22 02:13:45;;;;;;;33.20;27.10;;;;;;;-128.00;-1.00;-1.00;103456;1253;1002998;-73
2023/06/22 02:16:13;;;;;;;28.90;25.70;;;;;;;-128.00;-1.00;-1.00;103231;1252;1002643;-73
2023/06/22 02:18:52;;;;;;;32.00;27.70;;;;;;;-128.00;-1.00;-1.00;103389;1259;1002471;-73
2023/06/22 02:21:19;;;;;;;41.50;29.90;;;;;;;-128.00;-1.00;-1.00;103490;1256;1013846;-73
2023/06/22 02:23:47;;;;;;;39.70;31.30;;;;;;;-128.00;-1.00;-1.00;103474;1254;1002681;-73
2023/06/22 02:26:16;;;;;;;33.00;29.30;;;;;;;-128.00;-1.00;-1.00;103548;1254;1002503;-74
2023/06/22 02:28:42;;;;;;;30.50;27.30;;;;;;;-128.00;-1.00;-1.00;103480;1254;1011066;-73
2023/06/22 02:31:09;;;;;;;29.90;26.70;;;;;;;-128.00;-1.00;-1.00;103238;1254;1002825;-74
2023/06/22 02:33:37;;;;;;;29.40;26.30;;;;;;;-128.00;-1.00;-1.00;103263;1257;1002846;-74
2023/06/22 02:36:05;;;;;;;29.90;26.70;;;;;;;-128.00;-1.00;-1.00;103284;1253;1002417;-73
2023/06/22 02:38:35;;;;;;;27.20;24.30;;;;;;;-128.00;-1.00;-1.00;103245;1254;1003283;-79
2023/06/22 02:41:02;;;;;;;29.40;24.70;;;;;;;-128.00;-1.00;-1.00;103281;1254;1011475;-73
2023/06/22 02:43:29;;;;;;;29.00;24.20;;;;;;;-128.00;-1.00;-1.00;103398;1257;1002199;-73
2023/06/22 02:45:56;;;;;;;26.00;23.20;;;;;;;-128.00;-1.00;-1.00;103224;1256;1003120;-73
2023/06/22 02:48:24;;;;;;;26.50;23.50;;;;;;;-128.00;-1.00;-1.00;103280;1253;1003039;-73
2023/06/22 02:50:51;;;;;;;22.80;20.20;;;;;;;-128.00;-1.00;-1.00;103235;1254;1002780;-73
2023/06/22 02:53:19;;;;;;;25.10;22.50;;;;;;;-128.00;-1.00;-1.00;103289;1253;1002951;-73
2023/06/22 02:55:46;;;;;;;24.50;21.80;;;;;;;-128.00;-1.00;-1.00;103269;1260;1002956;-74
2023/06/22 02:58:13;;;;;;;25.00;21.00;;;;;;;-128.00;-1.00;-1.00;103431;1257;1002427;-74
2023/06/22 03:00:40;;;;;;;25.30;21.70;;;;;;;-128.00;-1.00;-1.00;103487;1256;1002638;-74
2023/06/22 03:03:07;;;;;;;25.70;21.40;;;;;;;-128.00;-1.00;-1.00;103505;1251;1002504;-79
2023/06/22 03:05:35;;;;;;;26.90;21.50;;;;;;;-128.00;-1.00;-1.00;103404;1253;1004724;-74
2023/06/22 03:08:02;;;;;;;22.70;20.30;;;;;;;-128.00;-1.00;-1.00;103509;1257;1002648;-74
2023/06/22 03:10:31;;;;;;;22.80;19.80;;;;;;;-128.00;-1.00;-1.00;103484;1257;1013795;-74
2023/06/22 03:12:58;;;;;;;22.70;20.10;;;;;;;-128.00;-1.00;-1.00;103064;1253;1002520;-75
2023/06/22 03:15:25;;;;;;;23.50;21.00;;;;;;;-128.00;-1.00;-1.00;103453;1253;1002512;-74
2023/06/22 03:17:52;;;;;;;22.20;20.00;;;;;;;-128.00;-1.00;-1.00;103439;1257;1002309;-74
2023/06/22 03:20:19;;;;;;;22.70;20.40;;;;;;;-128.00;-1.00;-1.00;103525;1257;1002669;-73
2023/06/22 03:22:48;;;;;;;21.60;19.40;;;;;;;-128.00;-1.00;-1.00;103521;1257;1002359;-76
2023/06/22 03:25:15;;;;;;;21.20;19.00;;;;;;;-128.00;-1.00;-1.00;103488;1257;1013764;-72
2023/06/22 03:27:44;;;;;;;21.70;19.50;;;;;;;-128.00;-1.00;-1.00;103455;1255;1009760;-73
2023/06/22 03:30:11;;;;;;;23.40;19.60;;;;;;;-128.00;-1.00;-1.00;103462;1254;1002399;-73
2023/06/22 03:32:38;;;;;;;22.60;20.40;;;;;;;-128.00;-1.00;-1.00;103484;1256;1003028;-74
2023/06/22 03:35:06;;;;;;;21.40;19.10;;;;;;;-128.00;-1.00;-1.00;103521;1257;1002501;-73
2023/06/22 03:37:34;;;;;;;21.50;18.50;;;;;;;-128.00;-1.00;-1.00;103487;1251;1012691;-74
2023/06/22 03:40:03;;;;;;;21.40;19.30;;;;;;;-128.00;-1.00;-1.00;103467;1257;1002483;-73
2023/06/22 03:42:31;;;;;;;23.30;20.00;;;;;;;-128.00;-1.00;-1.00;103428;1254;1011844;-75
2023/06/22 03:44:57;;;;;;;21.00;18.90;;;;;;;-128.00;-1.00;-1.00;103459;1256;1002463;-75
2023/06/22 03:47:25;;;;;;;22.20;19.90;;;;;;;-128.00;-1.00;-1.00;103552;1251;1002755;-75
2023/06/22 03:49:54;;;;;;;19.90;18.00;;;;;;;-128.00;-1.00;-1.00;103531;1251;1003972;-73
2023/06/22 03:52:22;;;;;;;20.20;18.30;;;;;;;-128.00;-1.00;-1.00;103535;1256;1010441;-73
2023/06/22 03:54:49;;;;;;;21.00;19.00;;;;;;;-128.00;-1.00;-1.00;103573;1255;1002350;-74
2023/06/22 03:57:15;;;;;;;21.00;18.80;;;;;;;-128.00;-1.00;-1.00;103587;1252;1003198;-74
2023/06/22 03:59:42;;;;;;;18.60;16.60;;;;;;;-128.00;-1.00;-1.00;103460;1255;1002398;-75
2023/06/22 04:02:09;;;;;;;19.60;17.60;;;;;;;-128.00;-1.00;-1.00;103508;1254;1002296;-76
2023/06/22 04:04:38;;;;;;;22.20;17.80;;;;;;;-128.00;-1.00;-1.00;103585;1253;1003641;-75
2023/06/22 04:07:05;;;;;;;18.00;16.30;;;;;;;-128.00;-1.00;-1.00;103557;1258;1011452;-77
2023/06/22 04:09:32;;;;;;;18.80;17.00;;;;;;;-128.00;-1.00;-1.00;103560;1255;1002610;-74
2023/06/22 04:11:59;;;;;;;20.90;17.80;;;;;;;-128.00;-1.00;-1.00;103562;1256;1002723;-75
2023/06/22 04:14:26;;;;;;;19.30;17.30;;;;;;;-128.00;-1.00;-1.00;103584;1252;1002786;-75
2023/06/22 04:16:52;;;;;;;22.60;18.30;;;;;;;-128.00;-1.00;-1.00;103488;1254;1004483;-75
2023/06/22 04:19:19;;;;;;;17.90;16.10;;;;;;;-128.00;-1.00;-1.00;103496;1253;1002648;-76
2023/06/22 04:21:48;;;;;;;23.80;16.80;;;;;;;-128.00;-1.00;-1.00;103283;1259;1002678;-76
2023/06/22 04:24:15;;;;;;;20.60;18.30;;;;;;;-128.00;-1.00;-1.00;103530;1256;1013282;-75
2023/06/22 04:26:45;;;;;;;23.40;17.20;;;;;;;-128.00;-1.00;-1.00;103535;1252;1005023;-78
2023/06/22 04:29:12;;;;;;;21.50;18.30;;;;;;;-128.00;-1.00;-1.00;103323;1253;1010038;-76
2023/06/22 04:31:39;;;;;;;23.30;19.50;;;;;;;-128.00;-1.00;-1.00;103510;1251;1002257;-76
2023/06/22 04:34:07;;;;;;;25.10;22.60;;;;;;;-128.00;-1.00;-1.00;103309;1253;1002813;-76
2023/06/22 04:36:38;;;;;;;21.20;19.10;;;;;;;-128.00;-1.00;-1.00;103531;1256;1002897;-77
2023/06/22 04:39:09;;;;;;;19.90;17.90;;;;;;;-128.00;-1.00;-1.00;103520;1251;1013063;-77
2023/06/22 04:41:42;;;;;;;18.70;16.80;;;;;;;-128.00;-1.00;-1.00;103507;1251;1010388;-76
2023/06/22 04:44:10;;;;;;;18.20;16.40;;;;;;;-128.00;-1.00;-1.00;103583;1251;1011730;-76
2023/06/22 04:46:40;;;;;;;21.50;15.60;;;;;;;-128.00;-1.00;-1.00;103559;1251;1002603;-76
2023/06/22 04:49:09;;;;;;;18.20;16.40;;;;;;;-128.00;-1.00;-1.00;103250;1251;1013007;-74
2023/06/22 04:51:39;;;;;;;18.40;16.60;;;;;;;-128.00;-1.00;-1.00;103521;1256;1013221;-80
2023/06/22 04:54:06;;;;;;;18.70;17.00;;;;;;;-128.00;-1.00;-1.00;103522;1251;1010977;-76
2023/06/22 04:56:33;;;;;;;19.80;17.80;;;;;;;-128.00;-1.00;-1.00;103538;1252;1002114;-77
2023/06/22 04:58:59;;;;;;;18.40;16.60;;;;;;;-128.00;-1.00;-1.00;103511;1253;1002777;-76
2023/06/22 05:01:26;;;;;;;18.10;16.00;;;;;;;-128.00;-1.00;-1.00;103514;1255;1002769;-75
2023/06/22 05:03:56;;;;;;;19.80;16.30;;;;;;;-128.00;-1.00;-1.00;103444;1253;1002899;-76
2023/06/22 05:06:26;;;;;;;17.90;16.20;;;;;;;-128.00;-1.00;-1.00;103471;1253;1012555;-75
2023/06/22 05:12:24;;;;;;;17.20;15.50;;;;;;;-128.00;-1.00;-1.00;103154;1259;1013949;-75
2023/06/22 05:14:51;;;;;;;19.20;16.50;;;;;;;-128.00;-1.00;-1.00;103158;1259;1002460;-80
2023/06/22 05:17:18;;;;;;;18.10;14.90;;;;;;;-128.00;-1.00;-1.00;103131;1257;1002725;-76
2023/06/22 05:19:48;;;;;;;16.40;14.80;;;;;;;-128.00;-1.00;-1.00;103285;1257;1002495;-76
2023/06/22 05:22:15;;;;;;;18.90;16.80;;;;;;;-128.00;-1.00;-1.00;103387;1256;1010940;-76
2023/06/22 05:24:42;;;;;;;15.70;14.20;;;;;;;-128.00;-1.00;-1.00;103314;1257;1003904;-76
2023/06/22 05:27:12;;;;;;;17.30;15.30;;;;;;;-128.00;-1.00;-1.00;103188;1259;1002699;-75
2023/06/22 05:29:39;;;;;;;14.10;12.70;;;;;;;-128.00;-1.00;-1.00;103200;1257;1012681;-77
2023/06/22 05:32:06;;;;;;;18.80;16.80;;;;;;;-128.00;-1.00;-1.00;103201;1261;1003147;-75
2023/06/22 05:34:33;;;;;;;;;;;;;;;-128.00;-1.00;-1.00;103262;1260;1002547;-75
2023/06/22 05:37:00;;;;;;;15.10;13.60;;;;;;;-128.00;-1.00;-1.00;103259;1259;1002995;-79
2023/06/22 05:39:27;;;;;;;14.90;13.70;;;;;;;-128.00;-1.00;-1.00;103260;1257;1003020;-76
2023/06/22 05:41:54;;;;;;;14.80;13.00;;;;;;;-128.00;-1.00;-1.00;103108;1257;1002849;-77
2023/06/22 05:44:21;;;;;;;15.70;14.30;;;;;;;-128.00;-1.00;-1.00;103228;1256;1002719;-79
2023/06/22 05:46:48;;;;;;;16.60;15.10;;;;;;;-128.00;-1.00;-1.00;103210;1256;1002334;-79
2023/06/22 05:49:15;;;;;;;15.10;13.60;;;;;;;-128.00;-1.00;-1.00;103450;1256;1002771;-78
2023/06/22 05:51:42;;;;;;;14.90;13.50;;;;;;;-128.00;-1.00;-1.00;103726;1256;1003344;-78
2023/06/22 05:54:09;;;;;;;16.60;14.90;;;;;;;-128.00;-1.00;-1.00;103565;1253;1002700;-77
2023/06/22 05:56:36;;;;;;;16.00;14.50;;;;;;;-128.00;-1.00;-1.00;103532;1252;1004220;-86
2023/06/22 05:59:03;;;;;;;15.90;14.30;;;;;;;-128.00;-1.00;-1.00;103605;1253;1004431;-76
2023/06/22 06:01:35;;;;;;;14.90;13.40;;;;;;;-128.00;-1.00;-1.00;103559;1256;1002787;-79
2023/06/22 06:04:07;;;;;;;13.40;12.20;;;;;;;-128.00;-1.00;-1.00;103342;1259;1012752;-76
2023/06/22 06:06:36;;;;;;;14.20;12.90;;;;;;;-128.00;-1.00;-1.00;103554;1252;1012501;-78
2023/06/22 06:09:04;;;;;;;14.00;12.60;;;;;;;-128.00;-1.00;-1.00;103654;1253;1010878;-81
2023/06/22 06:11:31;;;;;;;14.30;13.00;;;;;;;-128.00;-1.00;-1.00;103538;1253;1002815;-78
2023/06/22 06:13:58;;;;;;;;;;;;;;;-128.00;-1.00;-1.00;103266;1260;1002142;-78
2023/06/22 06:16:25;;;;;;;14.50;13.10;;;;;;;-128.00;-1.00;-1.00;103522;1255;1002529;-77
2023/06/22 06:18:54;;;;;;;14.50;13.00;;;;;;;-128.00;-1.00;-1.00;103511;1253;1002536;-83
2023/06/22 06:21:22;;;;;;;15.20;13.30;;;;;;;-128.00;-1.00;-1.00;103594;1252;1010485;-79
2023/06/22 06:23:48;;;;;;;14.40;12.90;;;;;;;-128.00;-1.00;-1.00;103521;1255;1003266;-78
2023/06/22 06:26:16;;;;;;;15.20;13.80;;;;;;;-128.00;-1.00;-1.00;103499;1252;1003087;-78
2023/06/22 06:28:43;;;;;;;14.20;12.90;;;;;;;-128.00;-1.00;-1.00;103523;1252;1002687;-78
2023/06/22 06:31:12;;;;;;;14.80;12.80;;;;;;;-128.00;-1.00;-1.00;103559;1251;1003156;-82
2023/06/22 06:33:39;;;;;;;14.00;12.70;;;;;;;-128.00;-1.00;-1.00;103289;1251;1002969;-78
2023/06/22 06:36:08;;;;;;;14.40;12.00;;;;;;;-128.00;-1.00;-1.00;103590;1251;1002787;-79
2023/06/22 06:38:35;;;;;;;17.10;11.60;;;;;;;-128.00;-1.00;-1.00;103583;1255;1012615;-76
2023/06/22 06:41:02;;;;;;;16.60;12.00;;;;;;;-128.00;-1.00;-1.00;103526;1256;1003311;-78
2023/06/22 06:43:29;;;;;;;13.20;11.90;;;;;;;-128.00;-1.00;-1.00;102868;1251;1003009;-77
2023/06/22 06:45:56;;;;;;;12.70;11.40;;;;;;;-128.00;-1.00;-1.00;103264;1253;1002437;-75
2023/06/22 06:48:23;;;;;;;14.00;12.50;;;;;;;-128.00;-1.00;-1.00;103236;1253;1002421;-81
2023/06/22 06:50:50;;;;;;;14.10;12.20;;;;;;;-128.00;-1.00;-1.00;103387;1256;1002604;-78
2023/06/22 06:53:16;;;;;;;14.60;11.10;;;;;;;-128.00;-1.00;-1.00;103480;1253;1004781;-82
2023/06/22 06:55:45;;;;;;;12.10;10.80;;;;;;;-128.00;-1.00;-1.00;103336;1251;1003087;-79
2023/06/22 06:58:13;;;;;;;13.60;11.60;;;;;;;-128.00;-1.00;-1.00;103645;1257;1010158;-83
2023/06/22 07:00:45;;;;;;;12.30;11.20;;;;;;;-128.00;-1.00;-1.00;103768;1251;1012372;-78
2023/06/22 07:03:11;;;;;;;12.70;11.40;;;;;;;-128.00;-1.00;-1.00;103532;1251;1014291;-80
2023/06/22 07:05:38;;;;;;;24.20;12.50;;;;;;;-128.00;-1.00;-1.00;103551;1257;1003056;-81
2023/06/22 07:08:05;;;;;;;17.40;13.90;;;;;;;-128.00;-1.00;-1.00;103577;1255;1002431;-80
2023/06/22 07:10:33;;;;;;;13.30;12.10;;;;;;;-128.00;-1.00;-1.00;103543;1251;1010463;-76
2023/06/22 07:13:01;;;;;;;14.50;12.10;;;;;;;-128.00;-1.00;-1.00;103535;1251;1005000;-81
2023/06/22 07:15:27;;;;;;;12.90;11.70;;;;;;;-128.00;-1.00;-1.00;103671;1251;1004175;-81
2023/06/22 07:17:54;;;;;;;17.10;12.50;;;;;;;-128.00;-1.00;-1.00;103649;1251;1003355;-78
2023/06/22 07:20:21;;;;;;;16.60;12.30;;;;;;;-128.00;-1.00;-1.00;103632;1251;1002608;-79
2023/06/22 07:22:48;;;;;;;12.90;11.60;;;;;;;-128.00;-1.00;-1.00;103570;1251;1002444;-76
2023/06/22 07:25:15;;;;;;;16.50;10.50;;;;;;;-128.00;-1.00;-1.00;103528;1251;1002786;-79
2023/06/22 07:27:56;;;;;;;12.80;11.50;;;;;;;-128.00;-1.00;-1.00;103507;1257;1002116;-78
2023/06/22 07:30:23;;;;;;;14.30;13.00;;;;;;;-128.00;-1.00;-1.00;103609;1256;1013855;-81
2023/06/22 07:32:50;;;;;;;13.80;11.70;;;;;;;-128.00;-1.00;-1.00;103394;1251;1002761;-78
2023/06/22 07:35:17;;;;;;;14.10;12.70;;;;;;;-128.00;-1.00;-1.00;103449;1251;1002335;-79
2023/06/22 07:37:44;;;;;;;13.70;12.20;;;;;;;-128.00;-1.00;-1.00;103492;1255;1003142;-78
2023/06/22 07:40:11;;;;;;;15.40;11.90;;;;;;;-128.00;-1.00;-1.00;104089;1251;1004485;-78
2023/06/22 07:42:39;;;;;;;14.40;11.80;;;;;;;-128.00;-1.00;-1.00;104495;1259;1014035;-79
2023/06/22 07:45:07;;;;;;;;;;;;;;;-128.00;-1.00;-1.00;103564;1251;1002193;-80
2023/06/22 07:47:35;;;;;;;11.80;10.20;;;;;;;-128.00;-1.00;-1.00;103426;1251;1009735;-78
2023/06/22 07:50:03;;;;;;;10.40;9.30;;;;;;;-128.00;-1.00;-1.00;103547;1257;1011037;-78
2023/06/22 07:52:30;;;;;;;10.90;10.00;;;;;;;-128.00;-1.00;-1.00;103566;1251;1002635;-86
2023/06/22 07:54:57;;;;;;;11.30;9.80;;;;;;;-128.00;-1.00;-1.00;103439;1256;1002699;-80
2023/06/22 07:57:32;;;;;;;15.50;10.10;;;;;;;-128.00;-1.00;-1.00;103277;1251;1002532;-76
2023/06/22 08:00:00;;;;;;;10.70;9.70;;;;;;;-128.00;-1.00;-1.00;103577;1251;1009950;-79
2023/06/22 08:02:26;;;;;;;13.70;9.70;;;;;;;-128.00;-1.00;-1.00;103654;1251;1003487;-78
2023/06/22 08:04:53;;;;;;;11.80;10.40;;;;;;;-128.00;-1.00;-1.00;103554;1254;1002996;-79
2023/06/22 08:07:33;;;;;;;12.90;10.90;;;;;;;-128.00;-1.00;-1.00;103544;1256;1012965;-75
2023/06/22 08:10:00;;;;;;;10.60;9.60;;;;;;;-128.00;-1.00;-1.00;103505;1256;1002430;-79
2023/06/22 08:12:26;;;;;;;11.60;10.50;;;;;;;-128.00;-1.00;-1.00;103659;1251;1002848;-79
2023/06/22 08:14:53;;;;;;;11.30;10.20;;;;;;;-128.00;-1.00;-1.00;103550;1251;1002865;-79
2023/06/22 08:17:20;;;;;;;12.30;11.10;;;;;;;-128.00;-1.00;-1.00;103499;1251;1002847;-78
2023/06/22 08:19:46;;;;;;;11.70;10.50;;;;;;;-128.00;-1.00;-1.00;103507;1251;1002987;-78
2023/06/22 08:22:13;;;;;;;10.40;9.30;;;;;;;-128.00;-1.00;-1.00;103539;1251;1002627;-78
2023/06/22 08:24:40;;;;;;;13.40;11.20;;;;;;;-128.00;-1.00;-1.00;103499;1251;1003929;-75
2023/06/22 08:27:09;;;;;;;10.80;9.70;;;;;;;-128.00;-1.00;-1.00;103237;1251;1002708;-77
2023/06/22 08:29:37;;;;;;;13.40;10.10;;;;;;;-128.00;-1.00;-1.00;103259;1256;1013035;-82
2023/06/22 08:32:03;;;;;;;;;;;;;;;-128.00;-1.00;-1.00;103641;1251;1003112;-79
2023/06/22 08:34:31;;;;;;;11.00;9.90;;;;;;;-128.00;-1.00;-1.00;103504;1251;1002709;-78
2023/06/22 08:36:57;;;;;;;14.10;10.40;;;;;;;-128.00;-1.00;-1.00;103506;1251;1002635;-82
2023/06/22 08:39:25;;;;;;;11.30;10.20;;;;;;;-128.00;-1.00;-1.00;103596;1251;1002985;-79
2023/06/22 08:41:52;;;;;;;12.40;11.20;;;;;;;-128.00;-1.00;-1.00;103580;1255;1002891;-77
2023/06/22 08:44:19;;;;;;;11.40;10.20;;;;;;;-128.00;-1.00;-1.00;103515;1255;1003970;-78
2023/06/22 08:46:46;;;;;;;;;;;;;;;-128.00;-1.00;-1.00;103533;1251;1002397;-78
2023/06/22 08:49:12;;;;;;;11.50;10.30;;;;;;;-128.00;-1.00;-1.00;103581;1251;1003967;-80
2023/06/22 08:51:39;;;;;;;11.60;10.30;;;;;;;-128.00;-1.00;-1.00;103576;1255;1002936;-80
2023/06/22 08:54:06;;;;;;;11.20;10.10;;;;;;;-128.00;-1.00;-1.00;103708;1256;1002626;-81
2023/06/22 08:56:33;;;;;;;11.40;10.20;;;;;;;-128.00;-1.00;-1.00;103629;1255;1002713;-80
2023/06/22 08:59:00;;;;;;;10.20;9.30;;;;;;;-128.00;-1.00;-1.00;103625;1251;1002500;-80
2023/06/22 09:01:27;;;;;;;10.70;9.70;;;;;;;-128.00;-1.00;-1.00;103547;1251;1002874;-77
2023/06/22 09:03:57;;;;;;;8.80;8.00;;;;;;;-128.00;-1.00;-1.00;103349;1251;1002679;-77
2023/06/22 09:06:25;;;;;;;10.50;9.20;;;;;;;-128.00;-1.00;-1.00;103721;1257;1013226;-77
2023/06/22 09:08:52;;;;;;;10.60;9.50;;;;;;;-128.00;-1.00;-1.00;103617;1251;1003337;-80
2023/06/22 09:11:18;;;;;;;9.80;8.90;;;;;;;-128.00;-1.00;-1.00;103593;1253;1003369;-77
2023/06/22 09:13:46;;;;;;;8.80;8.10;;;;;;;-128.00;-1.00;-1.00;103786;1251;1002342;-77
2023/06/22 09:16:13;;;;;;;28.10;10.40;;;;;;;-128.00;-1.00;-1.00;103781;1251;1002839;-82
2023/06/22 09:18:40;;;;;;;15.90;9.80;;;;;;;-128.00;-1.00;-1.00;103567;1251;1004208;-79
2023/06/22 09:21:07;;;;;;;11.80;9.60;;;;;;;-128.00;-1.00;-1.00;103536;1255;1002747;-79
2023/06/22 09:23:34;;;;;;;;;;;;;;;-128.00;-1.00;-1.00;103532;1251;1003209;-79
2023/06/22 09:26:01;;;;;;;;;;;;;;;-128.00;-1.00;-1.00;103604;1251;1002714;-79
2023/06/22 09:28:27;;;;;;;8.90;8.10;;;;;;;-128.00;-1.00;-1.00;103531;1251;1002283;-77
2023/06/22 09:30:59;;;;;;;11.10;9.80;;;;;;;-128.00;-1.00;-1.00;103539;1251;1005478;-78
2023/06/22 09:33:26;;;;;;;12.20;8.50;;;;;;;-128.00;-1.00;-1.00;103579;1256;1013030;-81
2023/06/22 09:35:53;;;;;;;15.40;8.70;;;;;;;-128.00;-1.00;-1.00;103553;1251;1004005;-79
2023/06/22 09:38:21;;;;;;;10.90;9.70;;;;;;;-128.00;-1.00;-1.00;103558;1251;1010229;-74
2023/06/22 09:40:49;;;;;;;10.40;9.30;;;;;;;-128.00;-1.00;-1.00;103576;1251;1002594;-79
2023/06/22 09:43:15;;;;;;;9.30;8.30;;;;;;;-128.00;-1.00;-1.00;103539;1251;1002759;-82
2023/06/22 09:45:42;;;;;;;12.10;8.20;;;;;;;-128.00;-1.00;-1.00;103529;1251;1003420;-80
2023/06/22 09:48:12;;;;;;;9.70;8.80;;;;;;;-128.00;-1.00;-1.00;103581;1251;1003416;-79
2023/06/22 09:50:39;;;;;;;8.60;7.80;;;;;;;-128.00;-1.00;-1.00;103572;1251;1010829;-76
2023/06/22 09:53:06;;;;;;;8.60;7.90;;;;;;;-128.00;-1.00;-1.00;103524;1251;1002920;-75
2023/06/22 09:55:33;;;;;;;9.30;8.40;;;;;;;-128.00;-1.00;-1.00;103506;1256;1002867;-75
2023/06/22 09:58:00;;;;;;;9.70;8.50;;;;;;;-128.00;-1.00;-1.00;103525;1255;1002825;-76
2023/06/22 10:00:26;;;;;;;12.70;8.60;;;;;;;-128.00;-1.00;-1.00;103479;1253;1002780;-76
2023/06/22 10:02:55;;;;;;;10.80;8.70;;;;;;;-128.00;-1.00;-1.00;103517;1253;1002573;-81
2023/06/22 10:05:26;;;;;;;9.40;8.50;;;;;;;-128.00;-1.00;-1.00;103474;1256;1011597;-85
2023/06/22 10:07:54;;;;;;;9.60;8.60;;;;;;;-128.00;-1.00;-1.00;103488;1256;1002778;-79
2023/06/22 10:10:20;;;;;;;8.80;8.00;;;;;;;-128.00;-1.00;-1.00;103495;1253;1004557;-79
2023/06/22 10:12:55;;;;;;;8.90;8.10;;;;;;;-128.00;-1.00;-1.00;103511;1253;1002709;-79
2023/06/22 10:15:22;;;;;;;10.50;9.40;;;;;;;-128.00;-1.00;-1.00;103503;1253;1010541;-76
2023/06/22 10:17:49;;;;;;;10.60;9.50;;;;;;;-128.00;-1.00;-1.00;103473;1253;1002615;-79
2023/06/22 10:20:18;;;;;;;10.40;9.50;;;;;;;-128.00;-1.00;-1.00;103486;1253;1002971;-79
2023/06/22 10:22:45;;;;;;;11.40;10.20;;;;;;;-128.00;-1.00;-1.00;103438;1255;1013549;-76
2023/06/22 10:25:12;;;;;;;12.30;10.80;;;;;;;-128.00;-1.00;-1.00;103485;1252;1002993;-80
2023/06/22 10:27:39;;;;;;;;;;;;;;;-128.00;-1.00;-1.00;103656;1253;1003045;-77
2023/06/22 10:30:10;;;;;;;11.00;10.00;;;;;;;-128.00;-1.00;-1.00;103518;1252;1002936;-76
2023/06/22 10:32:38;;;;;;;11.00;10.00;;;;;;;-128.00;-1.00;-1.00;103512;1256;1013273;-79
2023/06/22 10:35:08;;;;;;;9.70;8.80;;;;;;;-128.00;-1.00;-1.00;103599;1256;1013972;-76
2023/06/22 10:37:36;;;;;;;10.90;9.90;;;;;;;-128.00;-1.00;-1.00;103598;1251;1003391;-81
2023/06/22 10:40:04;;;;;;;;;;;;;;;-128.00;-1.00;-1.00;103664;1251;1002763;-74
2023/06/22 10:42:31;;;;;;;12.20;10.70;;;;;;;-128.00;-1.00;-1.00;103322;1253;1010838;-77
2023/06/22 10:44:58;;;;;;;13.50;12.00;;;;;;;-128.00;-1.00;-1.00;103537;1256;1002339;-81
2023/06/22 10:47:25;;;;;;;12.40;9.90;;;;;;;-128.00;-1.00;-1.00;103527;1255;1002881;-75
2023/06/22 10:49:52;;;;;;;11.80;10.70;;;;;;;-128.00;-1.00;-1.00;103536;1251;1003866;-79
2023/06/22 10:52:19;;;;;;;14.40;11.00;;;;;;;-128.00;-1.00;-1.00;103529;1252;1002855;-77
2023/06/22 10:54:46;;;;;;;12.20;11.10;;;;;;;-128.00;-1.00;-1.00;103396;1257;1004084;-74
2023/06/22 10:57:13;;;;;;;10.20;9.30;;;;;;;-128.00;-1.00;-1.00;103548;1256;1002191;-74
2023/06/22 10:59:40;;;;;;;11.60;10.50;;;;;;;-128.00;-1.00;-1.00;103606;1251;1003082;-77
2023/06/22 11:02:07;;;;;;;19.10;10.90;;;;;;;-128.00;-1.00;-1.00;103735;1251;1002589;-78
2023/06/22 11:04:34;;;;;;;11.90;10.80;;;;;;;-128.00;-1.00;-1.00;103583;1251;1002187;-80
2023/06/22 11:07:02;;;;;;;11.90;10.70;;;;;;;-128.00;-1.00;-1.00;103564;1251;1002873;-78
2023/06/22 11:09:29;;;;;;;11.90;10.90;;;;;;;-128.00;-1.00;-1.00;103524;1256;1012684;-81
2023/06/22 11:11:58;;;;;;;12.40;11.10;;;;;;;-128.00;-1.00;-1.00;103552;1253;1002232;-77
2023/06/22 11:14:25;;;;;;;12.30;11.10;;;;;;;-128.00;-1.00;-1.00;103518;1251;1012770;-76